Time;durP1;ratioP1;P1;durP2;ratioP2;P2;SDS_P1;SDS_P2;PMS_P1;PMS_P2;Temp;Humidity;BMP_temperature;BMP_pressure;BME280_temperature;BME280_humidity;BME280_pressure;Samples;Min_cycle;Max_cycle;Signal;HPM_P1;HPM_P2
2023/03/09 00:01:18;;;;;;;0.10;0.10;;;;;;;-3.06;79.59;97706.34;5010489;28;20054;-70
2023/03/09 00:03:45;;;;;;;0.10;0.10;;;;;;;-3.01;79.90;97700.28;5002518;28;20061;-70
2023/03/09 00:06:11;;;;;;;0.10;0.10;;;;;;;-3.08;79.67;97696.91;5020408;28;20052;-70
2023/03/09 00:08:37;;;;;;;0.10;0.10;;;;;;;-3.10;79.77;97717.75;5028468;28;20049;-70
2023/03/09 00:11:04;;;;;;;0.10;0.10;;;;;;;-3.09;79.76;97704.16;5012806;28;20060;-70
2023/03/09 00:13:30;;;;;;;0.20;0.20;;;;;;;-3.06;79.81;97718.88;5014246;28;20087;-70
2023/03/09 00:15:56;;;;;;;0.10;0.10;;;;;;;-3.09;80.02;97740.75;5023920;28;20049;-70
2023/03/09 00:18:22;;;;;;;0.10;0.10;;;;;;;-3.14;79.92;97734.25;5023929;28;20081;-70
2023/03/09 00:20:50;;;;;;;0.10;0.10;;;;;;;-3.10;79.74;97723.91;5025377;28;20053;-70
2023/03/09 00:23:19;;;;;;;0.20;0.20;;;;;;;-3.06;79.52;97722.38;5004854;28;20050;-70
2023/03/09 00:25:45;;;;;;;0.10;0.10;;;;;;;-3.11;79.62;97716.94;5017097;28;20266;-70
2023/03/09 00:28:12;;;;;;;0.10;0.10;;;;;;;-3.17;79.69;97716.03;5012626;28;20468;-73
2023/03/09 00:30:38;;;;;;;0.10;0.10;;;;;;;-3.18;79.90;97724.28;5006922;28;20197;-73
2023/03/09 00:33:04;;;;;;;0.10;0.10;;;;;;;-3.22;79.99;97726.59;5009136;28;20076;-73
2023/03/09 00:35:30;;;;;;;0.10;0.10;;;;;;;-3.30;80.20;97719.75;5039038;28;20057;-72
2023/03/09 00:37:57;;;;;;;0.10;0.10;;;;;;;-3.18;80.09;97737.63;5024191;28;20049;-73
2023/03/09 00:40:24;;;;;;;0.10;0.10;;;;;;;-3.14;79.93;97736.09;5005661;28;20073;-72
2023/03/09 00:42:50;;;;;;;0.10;0.10;;;;;;;-3.10;79.48;97739.13;5023746;28;20650;-73
2023/03/09 00:45:17;;;;;;;0.10;0.10;;;;;;;-3.04;79.21;97735.53;5025942;28;20512;-72
2023/03/09 00:47:43;;;;;;;0.10;0.10;;;;;;;-3.04;78.99;97739.00;5025904;28;20134;-74
2023/03/09 00:50:10;;;;;;;0.10;0.10;;;;;;;-3.03;78.92;97739.81;5012406;28;20064;-73
2023/03/09 00:52:36;;;;;;;0.13;0.13;;;;;;;-2.99;79.06;97728.41;4988253;28;20140;-73
2023/03/09 00:55:04;;;;;;;0.10;0.10;;;;;;;-2.93;78.39;97734.66;5001823;28;20505;-73
2023/03/09 00:57:31;;;;;;;0.10;0.10;;;;;;;-2.88;78.05;97745.47;5006945;28;20073;-73
2023/03/09 00:59:57;;;;;;;0.10;0.10;;;;;;;-2.89;78.00;97759.09;5010895;28;20080;-73
2023/03/09 01:02:24;;;;;;;0.10;0.10;;;;;;;-2.93;77.89;97764.09;5023764;28;20051;-73
2023/03/09 01:04:50;;;;;;;0.10;0.10;;;;;;;-3.04;78.19;97740.88;5024287;28;20049;-73
2023/03/09 01:07:17;;;;;;;0.10;0.10;;;;;;;-3.13;78.47;97740.41;5023800;28;20046;-73
2023/03/09 01:09:43;;;;;;;0.10;0.10;;;;;;;-3.12;78.51;97771.47;5024646;28;20116;-74
2023/03/09 01:12:10;;;;;;;0.13;0.13;;;;;;;-3.13;78.59;97735.88;5011000;28;20073;-73
2023/03/09 01:14:37;;;;;;;0.10;0.10;;;;;;;-3.06;78.35;97742.94;5020970;28;20046;-73
2023/03/09 01:17:03;;;;;;;0.10;0.10;;;;;;;-3.05;78.24;97756.09;5027711;28;20535;-72
2023/03/09 01:19:30;;;;;;;0.10;0.10;;;;;;;-3.01;78.24;97748.41;5025650;28;20045;-73
2023/03/09 01:21:56;;;;;;;0.10;0.10;;;;;;;-2.99;78.12;97752.47;5001865;28;20065;-72
2023/03/09 01:24:23;;;;;;;0.10;0.10;;;;;;;-2.99;77.92;97752.47;5008757;28;20045;-73
2023/03/09 01:26:49;;;;;;;0.10;0.10;;;;;;;-2.99;78.05;97767.72;5005560;28;20053;-73
2023/03/09 01:29:16;;;;;;;0.13;0.13;;;;;;;-3.04;78.09;97748.91;5010887;28;20053;-73
2023/03/09 01:31:42;;;;;;;0.10;0.10;;;;;;;-3.10;78.16;97747.97;5022420;28;20136;-72
2023/03/09 01:34:11;;;;;;;0.10;0.10;;;;;;;-3.20;78.64;97745.91;5000913;28;20145;-73
2023/03/09 01:36:39;;;;;;;0.10;0.10;;;;;;;-3.28;78.97;97760.44;5004991;28;20501;-72
2023/03/09 01:39:05;;;;;;;0.10;0.10;;;;;;;-3.32;79.28;97753.94;5007089;28;20085;-73
2023/03/09 01:41:31;;;;;;;0.10;0.10;;;;;;;-3.37;79.27;97747.66;5025898;28;20363;-73
2023/03/09 01:43:58;;;;;;;0.10;0.10;;;;;;;-3.46;79.25;97740.00;5009679;28;20512;-73
2023/03/09 01:46:39;;;;;;;0.10;0.10;;;;;;;-3.46;79.77;97742.69;5000188;28;20042;-72
2023/03/09 01:49:35;;;;;;;0.10;0.10;;;;;;;-3.48;79.98;97746.63;5011082;28;20053;-72
2023/03/09 01:52:09;;;;;;;0.10;0.10;;;;;;;-3.58;79.93;97755.22;4979790;28;20061;-73
2023/03/09 01:54:40;;;;;;;0.10;0.10;;;;;;;-3.60;80.36;97760.00;5008923;28;20496;-73
2023/03/09 01:57:13;;;;;;;0.10;0.10;;;;;;;-3.57;80.47;97757.69;5004509;28;20061;-72
2023/03/09 01:59:42;;;;;;;0.10;0.10;;;;;;;-3.61;80.32;97751.16;5005675;28;20421;-73
2023/03/09 02:02:10;;;;;;;0.10;0.10;;;;;;;-3.63;80.37;97761.25;4999892;28;20049;-73
2023/03/09 02:04:42;;;;;;;0.10;0.10;;;;;;;-3.66;79.68;97764.41;5012695;28;20108;-73
2023/03/09 02:07:08;;;;;;;0.10;0.10;;;;;;;-3.67;79.77;97760.09;4986736;28;20588;-72
2023/03/09 02:09:40;;;;;;;0.10;0.10;;;;;;;-3.64;79.21;97748.16;5002007;28;20509;-75
2023/03/09 02:12:11;;;;;;;0.10;0.10;;;;;;;-3.67;78.79;97768.13;5002829;28;20309;-72
2023/03/09 02:14:38;;;;;;;0.10;0.10;;;;;;;-3.75;78.96;97763.13;5005528;28;20054;-73
2023/03/09 02:17:04;;;;;;;0.10;0.10;;;;;;;-3.71;78.97;97774.97;5006961;28;20065;-73
2023/03/09 02:20:04;;;;;;;0.10;0.10;;;;;;;-3.72;78.39;97779.50;5026154;28;20148;-72
2023/03/09 02:22:34;;;;;;;0.10;0.10;;;;;;;-3.73;78.31;97785.09;5027257;28;20092;-72
2023/03/09 02:25:07;;;;;;;0.10;0.10;;;;;;;-3.76;78.28;97788.19;5024609;28;20037;-73
2023/03/09 02:27:35;;;;;;;0.10;0.10;;;;;;;-3.80;78.33;97773.69;5006228;28;20137;-73
2023/03/09 02:30:03;;;;;;;0.10;0.10;;;;;;;-3.78;78.41;97772.41;4993484;28;20046;-73
2023/03/09 02:32:33;;;;;;;0.10;0.10;;;;;;;-3.89;78.42;97763.34;5009882;28;20140;-74
2023/03/09 02:35:00;;;;;;;0.20;0.20;;;;;;;-3.88;78.69;97777.50;5024581;28;20497;-72
2023/03/09 02:37:32;;;;;;;0.10;0.10;;;;;;;-3.85;78.73;97814.44;4990153;28;20050;-73
2023/03/09 02:40:10;;;;;;;0.40;0.13;;;;;;;-3.81;78.33;97780.91;4992623;28;20056;-72
2023/03/09 02:42:39;;;;;;;0.10;0.10;;;;;;;-4.31;78.15;97707.34;5022736;28;20041;-73
2023/03/09 02:45:07;;;;;;;0.10;0.10;;;;;;;-3.86;78.51;97810.97;5030000;28;20057;-72
2023/03/09 02:47:33;;;;;;;0.10;0.10;;;;;;;-3.99;78.54;97787.94;5014636;28;20531;-73
2023/03/09 02:49:59;;;;;;;0.10;0.10;;;;;;;-3.92;78.68;97805.72;5020205;28;20124;-73
2023/03/09 02:52:25;;;;;;;0.10;0.10;;;;;;;-3.96;78.97;97820.59;5010352;28;20512;-72
2023/03/09 02:54:52;;;;;;;0.10;0.10;;;;;;;-3.97;79.14;97793.06;5008814;28;20042;-73
2023/03/09 02:57:18;;;;;;;0.10;0.10;;;;;;;-3.98;79.19;97810.13;5008916;28;20042;-72
2023/03/09 02:59:46;;;;;;;0.73;0.20;;;;;;;-4.22;79.11;97778.00;5012215;28;20495;-73
2023/03/09 03:02:12;;;;;;;0.00;0.00;;;;;;;-4.04;79.26;97805.72;5011974;28;20050;-72
2023/03/09 03:04:38;;;;;;;0.10;0.10;;;;;;;-4.06;78.92;97816.59;5009692;28;20046;-73
2023/03/09 03:07:07;;;;;;;0.10;0.10;;;;;;;-4.07;79.26;97801.63;5025826;28;20042;-73
2023/03/09 03:09:33;;;;;;;0.10;0.10;;;;;;;-4.18;79.32;97808.56;4991089;28;20713;-73
2023/03/09 03:12:00;;;;;;;0.10;0.10;;;;;;;-4.18;79.04;97792.56;5006410;28;20046;-73
2023/03/09 03:14:27;;;;;;;0.13;0.13;;;;;;;-4.07;78.35;97812.31;4985633;28;20053;-72
2023/03/09 03:16:55;;;;;;;0.10;0.10;;;;;;;-4.10;78.11;97810.09;5043538;28;20358;-75
2023/03/09 03:19:21;;;;;;;0.03;0.03;;;;;;;-4.10;77.64;97796.75;4997712;28;20046;-73
2023/03/09 03:21:48;;;;;;;0.10;0.10;;;;;;;-4.11;77.50;97803.13;4982349;28;20107;-72
2023/03/09 03:24:15;;;;;;;0.10;0.10;;;;;;;-4.11;76.86;97819.16;5025370;28;20080;-73
2023/03/09 03:26:41;;;;;;;0.10;0.10;;;;;;;-4.13;76.60;97843.41;5025761;28;20045;-72
2023/03/09 03:29:11;;;;;;;0.10;0.10;;;;;;;-4.13;76.51;97821.25;5020714;28;20038;-72
2023/03/09 03:31:37;;;;;;;0.10;0.10;;;;;;;-4.20;76.50;97825.84;5006614;28;20038;-72
2023/03/09 03:34:05;;;;;;;0.10;0.10;;;;;;;-4.21;76.67;97827.72;5006172;28;20053;-72
2023/03/09 03:36:36;;;;;;;0.10;0.10;;;;;;;-4.18;76.48;97808.56;4994113;28;20056;-72
2023/03/09 03:39:05;;;;;;;0.10;0.10;;;;;;;-4.20;76.21;97825.84;5027498;28;20052;-73
2023/03/09 03:41:31;;;;;;;0.10;0.10;;;;;;;-4.23;76.31;97823.63;5018860;28;20370;-73
2023/03/09 03:43:59;;;;;;;0.10;0.10;;;;;;;-4.29;76.19;97812.00;4991153;28;20054;-74
2023/03/09 03:46:25;;;;;;;0.10;0.10;;;;;;;-4.31;76.31;97822.91;5005657;28;20042;-73
2023/03/09 03:48:51;;;;;;;0.10;0.10;;;;;;;-4.32;76.91;97836.50;5008188;28;20374;-72
2023/03/09 03:51:20;;;;;;;0.17;0.17;;;;;;;-4.25;76.28;97836.41;4988068;28;20054;-72
2023/03/09 03:53:50;;;;;;;0.10;0.10;;;;;;;-4.31;76.06;97814.88;5020529;28;20050;-72
2023/03/09 03:56:16;;;;;;;0.10;0.10;;;;;;;-4.35;76.14;97811.06;5006200;28;20200;-73
2023/03/09 03:58:44;;;;;;;0.10;0.10;;;;;;;-4.34;76.18;97830.56;5018891;28;20053;-72
2023/03/09 04:01:10;;;;;;;0.10;0.10;;;;;;;-4.36;76.29;97829.97;5010728;28;20041;-72
2023/03/09 04:03:37;;;;;;;0.10;0.10;;;;;;;-4.33;76.27;97849.00;5006630;28;20064;-72
2023/03/09 04:06:04;;;;;;;0.10;0.10;;;;;;;-4.31;76.07;97824.78;5003047;28;20127;-72
2023/03/09 04:08:32;;;;;;;0.00;0.00;;;;;;;-4.31;75.85;97835.44;5004707;28;20060;-72
2023/03/09 04:10:59;;;;;;;0.10;0.10;;;;;;;-4.27;75.75;97842.78;5024549;28;20049;-72
2023/03/09 04:13:25;;;;;;;0.10;0.10;;;;;;;-4.33;75.83;97824.19;5010904;28;20045;-71
2023/03/09 04:15:51;;;;;;;0.10;0.10;;;;;;;-4.35;75.64;97837.75;5007707;28;20080;-73
2023/03/09 04:18:18;;;;;;;0.10;0.10;;;;;;;-4.38;76.11;97851.53;4974670;28;20066;-72
2023/03/09 04:20:44;;;;;;;0.13;0.13;;;;;;;-4.41;76.52;97844.00;5021771;28;20115;-72
2023/03/09 04:23:11;;;;;;;0.20;0.20;;;;;;;-4.38;76.43;97864.06;5018104;28;20607;-72
2023/03/09 04:25:42;;;;;;;0.13;0.13;;;;;;;-4.38;76.37;97842.72;5001929;28;20145;-73
2023/03/09 04:28:08;;;;;;;0.20;0.20;;;;;;;-4.42;76.24;97829.81;5015459;28;20052;-72
2023/03/09 04:30:47;;;;;;;0.10;0.10;;;;;;;-4.33;75.96;97854.34;5005152;28;20065;-72
2023/03/09 04:33:13;;;;;;;0.10;0.10;;;;;;;-4.35;75.85;97836.94;5009568;28;20046;-72
2023/03/09 04:35:42;;;;;;;0.10;0.10;;;;;;;-4.35;75.94;97859.09;5023258;28;20057;-72
2023/03/09 04:38:14;;;;;;;0.10;0.10;;;;;;;-4.31;75.95;97857.59;5018010;28;20575;-72
2023/03/09 04:40:43;;;;;;;0.20;0.20;;;;;;;-4.31;76.02;97854.13;5004700;28;20595;-72
2023/03/09 04:43:09;;;;;;;0.10;0.10;;;;;;;-4.31;76.14;97854.94;5022467;28;20091;-72
2023/03/09 04:45:35;;;;;;;0.10;0.10;;;;;;;-4.24;75.92;97892.22;5023366;28;20073;-72
2023/03/09 04:48:01;;;;;;;0.10;0.10;;;;;;;-4.21;76.01;97873.09;5018500;28;20048;-71
2023/03/09 04:50:29;;;;;;;0.20;0.20;;;;;;;-4.16;75.51;97878.56;4986398;28;20045;-72
2023/03/09 04:52:59;;;;;;;0.10;0.10;;;;;;;-4.18;75.67;97880.66;4659086;28;10000423;-73
2023/03/09 04:55:27;;;;;;;;;;;;;;;-4.14;75.56;97902.34;4984404;28;20107;-72
2023/03/09 04:57:57;;;;;;;0.10;0.10;;;;;;;-4.16;75.29;97881.22;4989390;28;20047;-72
2023/03/09 05:00:25;;;;;;;0.10;0.10;;;;;;;-4.14;75.46;97878.31;4999122;28;20567;-75
2023/03/09 05:02:51;;;;;;;0.20;0.20;;;;;;;-4.09;75.21;97891.81;5010253;28;20056;-73
2023/03/09 05:05:19;;;;;;;0.10;0.10;;;;;;;-4.01;74.87;97888.81;5013227;28;20041;-75
2023/03/09 05:07:47;;;;;;;0.10;0.10;;;;;;;-3.96;74.34;97898.03;5023716;28;20409;-73
2023/03/09 05:10:13;;;;;;;0.10;0.10;;;;;;;-3.86;72.95;97919.63;5021620;28;20476;-75
2023/03/09 05:12:44;;;;;;;0.20;0.20;;;;;;;-3.86;72.59;97899.09;5011658;28;20116;-75
2023/03/09 05:15:15;;;;;;;0.10;0.10;;;;;;;-3.80;72.03;97909.91;5006439;28;20472;-75
2023/03/09 05:17:41;;;;;;;0.10;0.10;;;;;;;-3.75;71.65;97924.22;5004156;28;20141;-74
2023/03/09 05:20:11;;;;;;;0.20;0.20;;;;;;;-3.75;70.90;97897.50;5002581;28;20464;-74
2023/03/09 05:22:42;;;;;;;0.10;0.10;;;;;;;-3.67;70.82;97912.38;4974782;28;20045;-74
2023/03/09 05:25:11;;;;;;;0.10;0.10;;;;;;;-3.59;70.05;97938.78;4998043;28;20046;-74
2023/03/09 05:27:38;;;;;;;0.10;0.10;;;;;;;-3.48;69.19;97909.63;5010638;28;20536;-74
2023/03/09 05:30:07;;;;;;;0.10;0.10;;;;;;;-3.49;68.75;97910.69;5011429;28;20428;-75
2023/03/09 05:32:36;;;;;;;0.20;0.20;;;;;;;-3.40;68.33;97893.28;4978665;28;20049;-76
2023/03/09 05:35:02;;;;;;;0.20;0.20;;;;;;;-3.32;67.93;97906.28;4997783;28;20053;-75
2023/03/09 05:37:32;;;;;;;0.17;0.17;;;;;;;-3.21;68.15;97910.00;5008777;28;20060;-74
2023/03/09 05:39:59;;;;;;;0.20;0.20;;;;;;;-3.14;67.39;97915.25;5018043;28;20112;-74
2023/03/09 05:42:26;;;;;;;0.10;0.10;;;;;;;-3.08;66.39;97910.84;5020854;28;20053;-75
2023/03/09 05:44:53;;;;;;;0.20;0.20;;;;;;;-3.09;66.44;97911.88;5010661;28;20402;-75
2023/03/09 05:47:19;;;;;;;0.20;0.20;;;;;;;-3.07;66.04;97909.78;5022722;28;20055;-75
2023/03/09 05:49:48;;;;;;;0.17;0.17;;;;;;;-3.01;65.81;97909.69;5022649;28;20111;-75
2023/03/09 05:52:14;;;;;;;0.13;0.13;;;;;;;-2.93;65.22;97913.88;5026083;28;20085;-75
2023/03/09 05:54:40;;;;;;;0.10;0.10;;;;;;;-2.82;64.57;97927.47;5018233;28;20054;-75
2023/03/09 05:57:12;;;;;;;0.20;0.20;;;;;;;-2.80;64.46;97928.06;5009446;28;20127;-74
2023/03/09 05:59:38;;;;;;;0.20;0.20;;;;;;;-2.74;64.58;97925.25;5017898;28;20053;-75
2023/03/09 06:02:05;;;;;;;0.20;0.20;;;;;;;-2.62;63.98;97943.19;5019995;28;20080;-74
2023/03/09 06:04:32;;;;;;;;;;;;;;;-2.60;63.89;97935.72;5016988;28;20441;-75
2023/03/09 06:07:04;;;;;;;0.10;0.10;;;;;;;-2.52;64.13;97930.00;5027228;28;19931;-72
2023/03/09 06:09:37;;;;;;;0.30;0.30;;;;;;;-2.43;64.02;97938.47;5025005;28;20148;-75
2023/03/09 06:12:09;;;;;;;0.20;0.20;;;;;;;-2.34;63.83;97945.09;5023706;28;20320;-75
2023/03/09 06:14:36;;;;;;;0.20;0.20;;;;;;;-2.29;63.55;97931.81;5027709;28;20167;-71
2023/03/09 06:17:03;;;;;;;0.20;0.20;;;;;;;-2.11;63.34;97927.34;5010115;28;20050;-71
2023/03/09 06:19:29;;;;;;;0.20;0.20;;;;;;;-1.96;62.93;97947.44;5005321;28;20049;-71
2023/03/09 06:21:56;;;;;;;0.20;0.20;;;;;;;-1.94;62.67;97940.00;5009449;28;20247;-75
2023/03/09 06:24:23;;;;;;;0.20;0.20;;;;;;;-1.83;62.26;97947.16;5007799;28;20056;-75
2023/03/09 06:26:50;;;;;;;0.20;0.20;;;;;;;-1.66;61.65;97941.03;5011337;28;20710;-75
2023/03/09 06:29:27;;;;;;;0.20;0.20;;;;;;;-1.51;61.27;97946.66;5017553;28;20535;-74
2023/03/09 06:31:53;;;;;;;0.20;0.20;;;;;;;-1.45;59.74;97982.44;5004404;28;20578;-74
2023/03/09 06:34:19;;;;;;;0.20;0.20;;;;;;;-1.58;60.57;97951.38;5020976;28;20070;-74
2023/03/09 06:36:45;;;;;;;0.20;0.20;;;;;;;-1.48;60.97;97959.59;5005099;28;20057;-74
2023/03/09 06:39:12;;;;;;;0.20;0.20;;;;;;;-1.46;59.91;97967.41;4999791;28;20136;-75
2023/03/09 06:41:43;;;;;;;0.13;0.13;;;;;;;-1.57;60.04;97977.94;5027986;28;20045;-74
2023/03/09 06:44:20;;;;;;;0.40;0.20;;;;;;;-1.69;59.80;97995.94;5020997;28;20049;-74
2023/03/09 06:46:47;;;;;;;0.20;0.20;;;;;;;-1.60;59.77;97991.00;5001336;28;20046;-74
2023/03/09 06:49:14;;;;;;;;;;;;;;;-1.51;58.59;97961.94;5026059;28;20499;-71
2023/03/09 06:51:42;;;;;;;0.20;0.20;;;;;;;-1.32;58.20;97989.38;5027451;28;19925;-71
2023/03/09 06:54:08;;;;;;;0.20;0.20;;;;;;;-1.29;57.92;97987.00;5012239;28;20145;-70
2023/03/09 06:56:42;;;;;;;0.20;0.20;;;;;;;-1.33;57.07;97975.13;5009252;28;20041;-75
2023/03/09 06:59:08;;;;;;;0.30;0.30;;;;;;;-1.37;57.65;97998.13;5009161;28;20513;-72
2023/03/09 07:01:35;;;;;;;0.20;0.20;;;;;;;-1.33;57.19;97995.75;5022255;28;20080;-71
2023/03/09 07:04:01;;;;;;;0.30;0.30;;;;;;;-1.28;57.25;98003.91;5025408;28;20157;-71
2023/03/09 07:06:27;;;;;;;0.20;0.20;;;;;;;-1.47;56.23;98001.44;5025596;28;20578;-71
2023/03/09 07:08:53;;;;;;;0.30;0.30;;;;;;;-1.48;56.09;97993.63;5006524;28;20060;-72
2023/03/09 07:11:19;;;;;;;0.30;0.30;;;;;;;-1.45;56.82;98007.38;5027574;28;20045;-71
2023/03/09 07:13:47;;;;;;;0.20;0.20;;;;;;;-1.36;56.12;98010.50;5026645;28;20060;-71
2023/03/09 07:16:14;;;;;;;0.20;0.20;;;;;;;-1.15;55.74;98000.94;5024504;28;20045;-71
2023/03/09 07:18:40;;;;;;;0.30;0.30;;;;;;;-0.90;54.96;97988.19;5021980;28;20119;-71
2023/03/09 07:21:06;;;;;;;0.30;0.30;;;;;;;-0.70;53.87;98011.03;5022343;28;20084;-75
2023/03/09 07:23:32;;;;;;;0.30;0.30;;;;;;;-0.69;53.34;98000.06;5024249;28;20067;-75
2023/03/09 07:25:59;;;;;;;0.28;0.28;;;;;;;-0.80;53.35;97999.06;5019895;28;20103;-74
2023/03/09 07:28:25;;;;;;;0.23;0.23;;;;;;;-0.73;53.35;98007.78;5021435;28;20073;-74
2023/03/09 07:30:53;;;;;;;0.30;0.30;;;;;;;-0.56;53.59;98020.38;5024914;28;20308;-74
2023/03/09 07:33:19;;;;;;;0.30;0.30;;;;;;;-0.41;52.65;98011.72;5026224;28;20049;-75
2023/03/09 07:35:45;;;;;;;0.30;0.30;;;;;;;-0.26;51.38;97986.97;5024565;28;20049;-74
2023/03/09 07:38:11;;;;;;;0.40;0.40;;;;;;;-0.08;51.15;98012.72;5022794;28;20096;-74
2023/03/09 07:40:37;;;;;;;0.30;0.30;;;;;;;0.07;49.81;97995.13;5039625;28;20053;-74
2023/03/09 07:43:03;;;;;;;0.20;0.20;;;;;;;-0.04;50.16;98023.78;5008014;28;20049;-74
2023/03/09 07:45:54;;;;;;;0.25;0.25;;;;;;;-0.37;50.51;98006.66;5020359;28;20057;-74
2023/03/09 07:48:20;;;;;;;0.20;0.20;;;;;;;-0.64;50.16;98005.50;5021580;28;20077;-71
2023/03/09 07:50:46;;;;;;;0.22;0.22;;;;;;;-0.82;50.62;98019.97;5001919;28;20073;-72
2023/03/09 07:53:12;;;;;;;0.20;0.20;;;;;;;-0.83;50.03;98007.59;5003308;28;20081;-72
2023/03/09 07:55:39;;;;;;;0.20;0.20;;;;;;;-0.76;50.55;98010.13;5019409;28;20056;-71
2023/03/09 07:58:05;;;;;;;0.25;0.25;;;;;;;-0.75;51.17;98017.94;5020418;28;20053;-72
2023/03/09 08:00:33;;;;;;;0.25;0.25;;;;;;;-0.74;51.38;98002.63;5021504;28;20436;-75
2023/03/09 08:03:01;;;;;;;0.20;0.20;;;;;;;-0.65;50.61;98029.88;5022209;28;20041;-74
2023/03/09 08:05:27;;;;;;;0.20;0.20;;;;;;;-0.69;50.75;98026.91;5024919;28;20148;-75
2023/03/09 08:07:53;;;;;;;0.30;0.30;;;;;;;-0.69;50.92;98013.47;5022457;28;20123;-75
2023/03/09 08:10:19;;;;;;;0.20;0.20;;;;;;;-0.68;51.38;98033.88;5019146;28;20464;-75
2023/03/09 08:12:48;;;;;;;0.20;0.20;;;;;;;-0.60;50.61;98025.41;5020086;28;20392;-75
2023/03/09 08:15:14;;;;;;;0.20;0.20;;;;;;;-0.58;51.05;98011.75;5022297;28;20072;-75
2023/03/09 08:17:40;;;;;;;0.20;0.20;;;;;;;-0.40;49.54;98036.72;5038111;28;20541;-75
2023/03/09 08:20:11;;;;;;;0.20;0.20;;;;;;;-0.39;50.01;98008.78;5020923;28;20103;-76
2023/03/09 08:22:37;;;;;;;0.30;0.30;;;;;;;-0.43;49.35;98056.81;5002713;28;20080;-76
2023/03/09 08:25:04;;;;;;;0.20;0.20;;;;;;;-0.47;49.80;98005.47;5023693;28;20045;-75
2023/03/09 08:27:37;;;;;;;0.20;0.20;;;;;;;-0.44;49.45;98039.06;5021519;28;20049;-76
2023/03/09 08:30:05;;;;;;;0.20;0.20;;;;;;;-0.44;49.11;98028.31;5024294;28;20076;-76
2023/03/09 08:32:31;;;;;;;0.20;0.20;;;;;;;-0.40;48.54;98007.97;5041703;28;20144;-75
2023/03/09 08:34:57;;;;;;;0.30;0.30;;;;;;;-0.40;48.50;98034.03;5025000;28;20135;-76
2023/03/09 08:37:24;;;;;;;0.27;0.27;;;;;;;-0.48;49.23;98032.56;5014657;28;20434;-76
2023/03/09 08:39:51;;;;;;;0.30;0.30;;;;;;;-0.39;48.63;98041.84;5022502;28;20045;-77
2023/03/09 08:42:17;;;;;;;0.20;0.20;;;;;;;-0.46;48.25;98007.09;5023472;28;20046;-76
2023/03/09 08:44:43;;;;;;;0.20;0.20;;;;;;;-0.40;47.95;98002.59;5024369;28;20049;-77
2023/03/09 08:47:10;;;;;;;0.20;0.20;;;;;;;-0.22;48.50;98006.09;5021426;28;20046;-75
2023/03/09 08:49:39;;;;;;;0.20;0.20;;;;;;;-0.27;47.29;98012.19;5021651;28;20163;-76
2023/03/09 08:52:12;;;;;;;0.20;0.20;;;;;;;-0.43;48.01;98003.94;5026606;28;20048;-77
2023/03/09 08:54:43;;;;;;;0.22;0.22;;;;;;;-0.38;48.49;98023.84;5001668;28;20076;-72
2023/03/09 08:57:09;;;;;;;0.20;0.20;;;;;;;-0.27;48.25;98020.25;4986936;28;20588;-73
2023/03/09 08:59:35;;;;;;;0.20;0.20;;;;;;;-0.22;48.29;97998.81;5024219;28;20083;-77
2023/03/09 09:02:01;;;;;;;0.20;0.20;;;;;;;0.01;48.28;98013.09;5022507;28;20147;-76
2023/03/09 09:04:28;;;;;;;0.20;0.20;;;;;;;0.06;47.23;98012.34;5017220;28;20539;-77
2023/03/09 09:06:54;;;;;;;0.20;0.20;;;;;;;0.06;47.56;98010.47;5022828;28;20057;-73
2023/03/09 09:09:21;;;;;;;0.30;0.30;;;;;;;0.13;47.54;97999.53;5039131;28;20206;-73
2023/03/09 09:11:49;;;;;;;0.20;0.20;;;;;;;0.24;46.65;98008.53;5003995;28;20053;-73
2023/03/09 09:14:16;;;;;;;0.20;0.20;;;;;;;0.11;46.52;98021.28;5001991;28;20578;-73
2023/03/09 09:16:42;;;;;;;0.20;0.20;;;;;;;0.04;47.01;98023.34;4997399;28;20049;-73
2023/03/09 09:19:08;;;;;;;0.20;0.20;;;;;;;0.03;45.98;98018.22;4999815;28;20113;-76
2023/03/09 09:21:35;;;;;;;0.30;0.30;;;;;;;0.07;46.75;98008.59;5016917;28;20441;-76
2023/03/09 09:24:01;;;;;;;0.20;0.20;;;;;;;0.26;47.10;97990.25;5018288;28;20116;-76
2023/03/09 09:26:27;;;;;;;0.20;0.20;;;;;;;0.41;46.25;98027.28;5017839;28;20064;-77
2023/03/09 09:28:55;;;;;;;0.30;0.30;;;;;;;0.22;46.38;98032.16;5000629;28;20560;-77
2023/03/09 09:31:21;;;;;;;0.20;0.20;;;;;;;-0.01;45.87;98001.75;5020721;28;20053;-77
2023/03/09 09:33:51;;;;;;;0.20;0.20;;;;;;;0.13;46.72;98004.91;5013922;28;20133;-73
2023/03/09 09:36:18;;;;;;;0.20;0.20;;;;;;;0.17;47.02;98015.97;5018144;28;20574;-73
2023/03/09 09:38:45;;;;;;;0.20;0.20;;;;;;;-0.05;46.89;98020.28;5016521;28;20073;-73
2023/03/09 09:41:18;;;;;;;0.20;0.20;;;;;;;-0.14;47.10;98005.66;5018799;28;20061;-73
2023/03/09 09:43:48;;;;;;;0.30;0.30;;;;;;;-0.11;47.99;98021.25;5000809;28;20153;-72
2023/03/09 09:46:19;;;;;;;0.20;0.20;;;;;;;-0.16;48.00;98013.13;5013164;28;20050;-73
2023/03/09 09:48:47;;;;;;;0.30;0.30;;;;;;;-0.05;48.35;98000.66;5018495;28;20111;-72
2023/03/09 09:51:27;;;;;;;0.20;0.20;;;;;;;-0.12;48.72;98021.53;5005210;28;20060;-73
2023/03/09 09:54:02;;;;;;;0.20;0.20;;;;;;;-0.19;48.86;98019.00;5024702;28;20406;-73
2023/03/09 09:56:36;;;;;;;0.20;0.20;;;;;;;-0.17;49.52;98006.94;5024266;28;20623;-73
2023/03/09 09:59:06;;;;;;;0.30;0.30;;;;;;;-0.20;50.27;98025.44;5017857;28;20052;-72
2023/03/09 10:01:44;;;;;;;0.20;0.20;;;;;;;-0.35;50.45;98010.75;5019494;28;20058;-73
2023/03/09 10:04:17;;;;;;;0.10;0.10;;;;;;;-0.42;50.92;98010.09;5014822;28;20150;-72
2023/03/09 10:06:46;;;;;;;0.20;0.20;;;;;;;-0.54;51.26;98001.34;5015871;28;20056;-73
2023/03/09 10:09:20;;;;;;;0.20;0.20;;;;;;;-0.54;52.25;98001.34;5005681;28;20435;-72
2023/03/09 10:11:50;;;;;;;0.20;0.20;;;;;;;-0.54;52.72;98012.88;5015946;28;20069;-72
2023/03/09 10:14:25;;;;;;;0.20;0.20;;;;;;;-0.47;53.61;98010.84;5002001;28;20599;-73
2023/03/09 10:16:59;;;;;;;0.10;0.10;;;;;;;-0.46;54.70;98007.09;5014525;28;20056;-73
2023/03/09 10:19:31;;;;;;;0.20;0.20;;;;;;;-0.48;55.68;98000.34;5020385;28;20045;-73
2023/03/09 10:21:59;;;;;;;0.20;0.20;;;;;;;-0.51;56.01;98007.00;5019664;28;20061;-72
2023/03/09 10:24:28;;;;;;;0.20;0.20;;;;;;;-0.52;56.58;98012.66;5019906;28;20046;-73
2023/03/09 10:27:00;;;;;;;0.17;0.17;;;;;;;-0.80;58.30;98004.44;5020051;28;20061;-72
2023/03/09 10:29:47;;;;;;;0.20;0.20;;;;;;;-1.02;59.12;98010.53;4997563;28;20049;-72
2023/03/09 10:32:19;;;;;;;0.20;0.20;;;;;;;-1.03;59.66;97992.81;5012658;28;20053;-72
2023/03/09 10:34:54;;;;;;;0.20;0.20;;;;;;;-1.03;59.76;97968.66;4999502;28;20057;-72
2023/03/09 10:37:24;;;;;;;0.20;0.20;;;;;;;-0.98;59.49;97989.41;5033985;28;20046;-76
2023/03/09 10:39:50;;;;;;;0.30;0.30;;;;;;;-0.92;59.35;97982.25;5024589;28;20049;-76
2023/03/09 10:42:19;;;;;;;0.20;0.20;;;;;;;-0.82;59.37;97987.75;5011279;28;20049;-77
2023/03/09 10:44:56;;;;;;;0.20;0.20;;;;;;;-0.96;59.88;97962.31;5030654;28;20051;-77
2023/03/09 10:47:24;;;;;;;0.20;0.20;;;;;;;-0.91;60.28;97967.78;5022384;28;20097;-77
2023/03/09 10:50:10;;;;;;;0.20;0.20;;;;;;;-0.93;61.00;97978.75;5023927;28;20140;-77
2023/03/09 10:52:37;;;;;;;0.20;0.20;;;;;;;-0.98;61.42;97980.53;5042217;28;20053;-76
2023/03/09 10:55:25;;;;;;;0.10;0.10;;;;;;;-1.02;62.13;97978.34;5021959;28;20043;-76
2023/03/09 10:57:55;;;;;;;0.20;0.20;;;;;;;-0.89;63.21;97979.06;5024931;28;20083;-76
2023/03/09 11:00:22;;;;;;;0.20;0.20;;;;;;;-0.85;64.73;97977.53;5027814;28;20056;-77
2023/03/09 11:02:54;;;;;;;0.20;0.20;;;;;;;-0.89;65.52;97969.13;5028529;28;20069;-77
2023/03/09 11:05:21;;;;;;;0.20;0.20;;;;;;;-0.95;67.07;97980.03;5023463;28;20045;-76
2023/03/09 11:07:50;;;;;;;0.20;0.20;;;;;;;-0.98;67.74;97969.78;5022790;28;20267;-77
2023/03/09 11:10:26;;;;;;;0.20;0.20;;;;;;;-0.92;67.94;97969.63;4992921;28;20056;-76
2023/03/09 11:12:53;;;;;;;0.20;0.20;;;;;;;-0.94;68.44;97962.88;5026740;28;20049;-76
2023/03/09 11:15:29;;;;;;;0.20;0.20;;;;;;;-0.98;69.13;97965.25;5025398;28;20199;-73
2023/03/09 11:17:59;;;;;;;0.17;0.17;;;;;;;-1.01;70.19;97960.38;5024508;28;20070;-72
2023/03/09 11:20:28;;;;;;;0.20;0.20;;;;;;;-1.02;70.45;97972.16;5026184;28;20064;-73
2023/03/09 11:23:16;;;;;;;0.20;0.20;;;;;;;-1.02;70.95;97966.78;5024521;28;20074;-72
2023/03/09 11:25:45;;;;;;;;;;;;;;;-1.07;71.47;97964.03;5025852;28;20589;-76
2023/03/09 11:28:23;;;;;;;0.10;0.10;;;;;;;-1.15;71.89;97958.00;5023861;28;19924;-76
2023/03/09 11:30:51;;;;;;;0.45;0.20;;;;;;;-1.17;72.45;97953.94;5020152;28;20098;-76
2023/03/09 11:33:20;;;;;;;0.10;0.10;;;;;;;-1.19;72.70;97964.91;5023406;28;20060;-76
2023/03/09 11:35:51;;;;;;;0.20;0.20;;;;;;;-1.19;73.12;97948.81;5021004;28;20052;-76
2023/03/09 11:38:21;;;;;;;0.17;0.17;;;;;;;-1.02;72.88;97962.25;5021575;28;20045;-76
2023/03/09 11:40:50;;;;;;;0.17;0.17;;;;;;;-1.04;72.94;97952.78;5020256;28;20045;-76